createdAt,value
2019-01-19T00:01:39.126Z,88.78
2019-01-19T00:07:20.328Z,88.92
2019-01-19T00:12:37.529Z,89.62
2019-01-19T00:18:21.746Z,90.06
2019-01-19T00:24:17.138Z,90.64
2019-01-19T00:30:00.747Z,90.60
2019-01-19T00:35:43.228Z,91.57
2019-01-19T00:41:22.685Z,91.44
2019-01-19T00:46:54.729Z,91.93
2019-01-19T00:52:37.746Z,92.46
2019-01-19T00:58:26.475Z,92.15
2019-01-19T01:04:01.228Z,91.15
2019-01-19T01:09:47.850Z,91.52
2019-01-19T01:15:37.728Z,90.51
2019-01-19T01:21:06.883Z,89.72
2019-01-19T01:27:03.999Z,89.93
2019-01-19T01:32:51.772Z,90.04
2019-01-19T01:38:07.651Z,87.35
2019-01-19T01:44:01.494Z,85.44
2019-01-19T01:49:33.220Z,83.70
2019-01-19T01:55:13.645Z,84.20
2019-01-19T02:00:57.715Z,83.54
2019-01-19T02:06:39.683Z,82.65
2019-01-19T02:12:29.050Z,82.13
2019-01-19T02:18:34.867Z,81.42
2019-01-19T02:23:53.511Z,81.42
2019-01-19T02:29:38.449Z,82.12
2019-01-19T02:35:32.725Z,82.56
2019-01-19T02:41:03.288Z,81.39
2019-01-19T02:46:55.769Z,80.72
2019-01-19T02:52:35.142Z,80.20
2019-01-19T02:58:28.913Z,80.79
2019-01-19T03:03:54.838Z,80.89
2019-01-19T03:09:24.385Z,81.52
2019-01-19T03:14:52.132Z,81.14
2019-01-19T03:20:34.150Z,81.05
2019-01-19T03:25:59.475Z,81.42
2019-01-19T03:31:51.640Z,81.51
2019-01-19T03:37:18.044Z,82.16
2019-01-19T03:42:57.830Z,83.24
2019-01-19T03:48:17.219Z,83.23
2019-01-19T03:54:13.047Z,83.36
2019-01-19T03:59:56.610Z,83.52
2019-01-19T04:05:31.314Z,81.88
2019-01-19T04:11:17.546Z,81.71
2019-01-19T04:17:14.301Z,82.17
2019-01-19T04:22:39.408Z,82.76
2019-01-19T04:27:43.429Z,83.73
2019-01-19T04:32:47.531Z,85.00
2019-01-19T04:37:51.579Z,86.00
2019-01-19T04:42:55.644Z,86.84
2019-01-19T04:47:59.630Z,86.30
2019-01-19T04:53:03.862Z,87.66
2019-01-19T04:58:07.872Z,89.40
2019-01-19T05:03:11.882Z,91.20
2019-01-19T05:08:16.243Z,93.19
2019-01-19T05:13:20.287Z,95.22
2019-01-19T05:18:24.319Z,96.24
2019-01-19T05:23:28.388Z,98.15
2019-01-19T05:28:32.417Z,99.64
2019-01-19T05:33:36.471Z,100.00
2019-01-19T05:38:40.512Z,100.00
2019-01-19T05:43:44.628Z,100.00
2019-01-19T05:48:48.751Z,100.00
2019-01-19T05:53:54.828Z,100.00
2019-01-19T05:58:58.860Z,100.00
2019-01-19T06:04:03.236Z,100.00
2019-01-19T06:09:07.993Z,100.00
2019-01-19T06:14:12.026Z,100.00
2019-01-19T06:19:16.058Z,100.00
2019-01-19T06:24:20.099Z,100.00
2019-01-19T06:29:24.250Z,100.00
2019-01-19T06:34:29.198Z,100.00
2019-01-19T06:39:33.544Z,100.00
2019-01-19T06:44:37.645Z,100.00
2019-01-19T06:49:44.479Z,100.00
2019-01-19T06:54:48.942Z,100.00
2019-01-19T06:59:53.007Z,100.00
2019-01-19T07:04:57.023Z,100.00
2019-01-19T07:10:01.090Z,100.00
2019-01-19T07:15:06.236Z,100.00
2019-01-19T07:20:13.050Z,100.00
2019-01-19T07:25:17.188Z,100.00
2019-01-19T07:30:21.259Z,100.00
2019-01-19T07:35:25.316Z,100.00
2019-01-19T07:40:29.369Z,100.00
2019-01-19T07:45:33.394Z,100.00
2019-01-19T07:50:37.614Z,100.00
2019-01-19T07:55:41.934Z,100.00
2019-01-19T08:00:46.061Z,100.00
2019-01-19T08:05:50.122Z,100.00
2019-01-19T08:10:54.238Z,100.00
2019-01-19T08:15:58.286Z,100.00
2019-01-19T08:21:02.434Z,100.00
2019-01-19T08:26:06.501Z,100.00
2019-01-19T08:31:10.552Z,100.00
2019-01-19T08:36:14.611Z,100.00
2019-01-19T08:41:18.712Z,100.00
2019-01-19T08:46:22.761Z,100.00
2019-01-19T08:51:26.919Z,100.00
2019-01-19T08:56:31.145Z,100.00
2019-01-19T09:01:35.224Z,100.00
2019-01-19T09:06:39.305Z,100.00
2019-01-19T09:11:43.374Z,100.00
2019-01-19T09:16:47.418Z,100.00
2019-01-19T09:21:51.526Z,99.19
2019-01-19T09:26:55.770Z,96.36
2019-01-19T09:31:59.872Z,91.07
2019-01-19T09:37:04.240Z,89.28
2019-01-19T09:42:08.268Z,86.95
2019-01-19T09:47:12.353Z,86.89
2019-01-19T09:52:21.163Z,84.27
2019-01-19T09:57:22.443Z,83.80
2019-01-19T10:02:26.521Z,83.95
2019-01-19T10:07:30.521Z,82.65
2019-01-19T10:12:34.615Z,81.76
2019-01-19T10:17:38.746Z,79.58
2019-01-19T10:22:42.837Z,79.00
2019-01-19T10:27:46.899Z,69.53
2019-01-19T10:32:50.977Z,63.70
2019-01-19T10:37:56.649Z,59.14
2019-01-19T10:43:00.935Z,59.67
2019-01-19T10:48:05.170Z,58.85
2019-01-19T10:53:09.317Z,58.81
2019-01-19T10:58:13.784Z,60.14
2019-01-19T11:03:18.074Z,59.64
2019-01-19T11:08:24.001Z,57.29
2019-01-19T11:13:28.459Z,61.75
2019-01-19T11:18:32.711Z,58.95
2019-01-19T11:23:41.026Z,59.94
2019-01-19T11:28:45.199Z,62.10
2019-01-19T11:33:49.325Z,60.66
2019-01-19T11:38:53.392Z,60.46
2019-01-19T11:43:57.454Z,60.44
2019-01-19T11:49:01.582Z,61.40
2019-01-19T11:54:06.884Z,62.21
2019-01-19T11:59:10.963Z,62.35
2019-01-19T12:04:15.229Z,60.28
2019-01-19T12:09:19.259Z,63.50
2019-01-19T12:14:23.357Z,65.49
2019-01-19T12:19:27.396Z,66.48
2019-01-19T12:24:31.429Z,66.62
2019-01-19T12:29:35.534Z,65.93
2019-01-19T12:34:40.284Z,64.49
2019-01-19T12:39:44.257Z,67.04
2019-01-19T12:44:48.624Z,65.82
2019-01-19T12:49:52.676Z,65.97
2019-01-19T12:54:56.731Z,66.16
2019-01-19T13:00:00.807Z,66.42
2019-01-19T13:05:08.406Z,70.52
2019-01-19T13:10:19.055Z,68.93
2019-01-19T13:16:05.715Z,68.67
2019-01-19T13:22:08.454Z,68.46
2019-01-19T13:27:34.304Z,70.96
2019-01-19T13:33:22.289Z,71.97
2019-01-19T13:39:05.916Z,70.98
2019-01-19T13:44:41.457Z,69.81
2019-01-19T13:50:22.635Z,71.91
2019-01-19T13:55:50.956Z,73.53
2019-01-19T14:01:48.109Z,74.10
2019-01-19T14:07:48.228Z,73.85
2019-01-19T14:13:32.920Z,75.46
2019-01-19T14:19:04.962Z,76.24
2019-01-19T14:24:55.943Z,76.01
2019-01-19T14:30:39.638Z,76.36
2019-01-19T14:36:27.780Z,77.28
2019-01-19T14:42:03.663Z,78.81
2019-01-19T14:47:21.985Z,80.20
2019-01-19T14:53:01.165Z,81.85
2019-01-19T14:58:40.658Z,83.50
2019-01-19T15:04:21.535Z,85.06
2019-01-19T15:09:57.128Z,86.09
2019-01-19T15:15:35.915Z,86.86
2019-01-19T15:21:31.828Z,87.94
2019-01-19T15:27:31.775Z,90.11
2019-01-19T15:33:15.385Z,91.58
2019-01-19T15:39:11.032Z,93.42
2019-01-19T15:44:46.746Z,94.71
2019-01-19T15:50:37.150Z,95.35
2019-01-19T15:56:28.656Z,96.10
2019-01-19T16:02:18.438Z,97.31
2019-01-19T16:07:59.350Z,97.73
2019-01-19T16:13:19.612Z,98.06
2019-01-19T16:18:55.162Z,98.82
2019-01-19T16:24:26.091Z,99.76
2019-01-19T16:29:57.391Z,100.00
2019-01-19T16:35:52.169Z,100.00
2019-01-19T16:41:40.497Z,100.00
2019-01-19T16:47:25.700Z,100.00
2019-01-19T16:53:03.592Z,100.00
2019-01-19T16:58:38.118Z,100.00
2019-01-19T17:04:19.526Z,100.00
2019-01-19T17:10:19.875Z,100.00
2019-01-19T17:15:39.300Z,100.00
2019-01-19T17:21:24.974Z,100.00
2019-01-19T17:27:03.025Z,100.00
2019-01-19T17:32:32.870Z,100.00
2019-01-19T17:38:09.623Z,100.00
2019-01-19T17:43:40.269Z,100.00
2019-01-19T17:49:06.981Z,100.00
2019-01-19T17:54:41.069Z,100.00
2019-01-19T17:59:58.920Z,100.00
2019-01-19T18:05:46.861Z,100.00
2019-01-19T18:11:37.345Z,100.00
2019-01-19T18:17:34.265Z,100.00
2019-01-19T18:23:17.886Z,100.00
2019-01-19T18:29:06.054Z,100.00
2019-01-19T18:34:45.939Z,100.00
2019-01-19T18:40:07.394Z,100.00
2019-01-19T18:45:46.332Z,100.00
2019-01-19T18:51:35.728Z,100.00
2019-01-19T18:57:49.607Z,100.00
2019-01-19T19:03:37.830Z,100.00
2019-01-19T19:09:38.347Z,100.00
2019-01-19T19:15:06.300Z,100.00
2019-01-19T19:21:03.718Z,100.00
2019-01-19T19:26:32.879Z,100.00
2019-01-19T19:32:13.610Z,100.00
2019-01-19T19:38:01.498Z,100.00
2019-01-19T19:43:46.533Z,100.00
2019-01-19T19:49:23.319Z,100.00
2019-01-19T19:54:31.650Z,100.00
2019-01-19T19:59:39.248Z,100.00
2019-01-19T20:04:50.141Z,100.00
2019-01-19T20:09:57.070Z,100.00
2019-01-19T20:15:07.452Z,100.00
2019-01-19T20:20:12.590Z,100.00
2019-01-19T20:25:18.623Z,100.00
2019-01-19T20:30:24.270Z,100.00
2019-01-19T20:35:28.798Z,100.00
2019-01-19T20:40:35.646Z,100.00
2019-01-19T20:45:42.686Z,100.00
2019-01-19T20:50:47.168Z,100.00
2019-01-19T20:55:51.973Z,100.00
2019-01-19T21:00:56.155Z,100.00
2019-01-19T21:06:00.730Z,100.00
2019-01-19T21:11:05.857Z,100.00
2019-01-19T21:16:09.894Z,100.00
2019-01-19T21:21:14.254Z,100.00
2019-01-19T21:26:18.596Z,100.00
2019-01-19T21:31:22.675Z,100.00
2019-01-19T21:36:28.199Z,100.00
2019-01-19T21:41:32.255Z,100.00
2019-01-19T21:46:36.740Z,100.00
2019-01-19T21:51:40.908Z,100.00
2019-01-19T21:56:44.969Z,100.00
2019-01-19T22:01:49.075Z,100.00
2019-01-19T22:06:53.333Z,100.00
2019-01-19T22:11:58.303Z,100.00
2019-01-19T22:17:02.543Z,100.00
2019-01-19T22:22:06.578Z,100.00
2019-01-19T22:27:10.691Z,100.00
2019-01-19T22:32:14.982Z,100.00
2019-01-19T22:37:19.081Z,100.00
2019-01-19T22:42:23.144Z,100.00
2019-01-19T22:47:27.198Z,100.00
2019-01-19T22:52:31.288Z,100.00
2019-01-19T22:57:35.564Z,100.00
2019-01-19T23:02:41.809Z,100.00
2019-01-19T23:07:45.938Z,100.00
2019-01-19T23:12:52.692Z,100.00
2019-01-19T23:17:57.930Z,100.00
2019-01-19T23:23:03.220Z,100.00
2019-01-19T23:28:08.464Z,100.00
2019-01-19T23:33:12.662Z,100.00
2019-01-19T23:38:16.716Z,100.00
2019-01-19T23:43:20.813Z,100.00
2019-01-19T23:48:24.901Z,100.00
2019-01-19T23:53:28.967Z,100.00
2019-01-19T23:58:33.005Z,100.00
